createdAt,value
2022-10-18T00:00:09.578Z,41.08
2022-10-18T00:02:38.323Z,38.15
2022-10-18T00:05:05.800Z,44.25
2022-10-18T00:07:33.273Z,40.35
2022-10-18T00:10:00.631Z,39.63
2022-10-18T00:12:27.879Z,40.20
2022-10-18T00:14:55.038Z,41.03
2022-10-18T00:17:22.202Z,40.45
2022-10-18T00:19:50.336Z,42.05
2022-10-18T00:22:17.460Z,38.80
2022-10-18T00:24:44.630Z,41.92
2022-10-18T00:27:11.807Z,40.45
2022-10-18T00:29:39.019Z,36.88
2022-10-18T00:32:06.198Z,37.65
2022-10-18T00:34:33.334Z,42.53
2022-10-18T00:37:00.481Z,37.67
2022-10-18T00:39:27.663Z,39.97
2022-10-18T00:41:55.013Z,36.47
2022-10-18T00:44:24.911Z,41.85
2022-10-18T00:46:55.721Z,43.15
2022-10-18T00:49:31.125Z,37.13
2022-10-18T00:52:03.842Z,45.03
2022-10-18T00:54:34.554Z,39.73
2022-10-18T00:57:02.631Z,44.50
2022-10-18T00:59:30.165Z,36.83
2022-10-18T01:01:57.456Z,41.25
2022-10-18T01:04:25.248Z,40.55
2022-10-18T01:07:28.916Z,44.33
2022-10-18T01:10:13.996Z,38.95
2022-10-18T01:13:10.190Z,41.75
2022-10-18T01:16:01.278Z,42.60
2022-10-18T01:18:36.222Z,40.00
2022-10-18T01:21:08.866Z,37.60
2022-10-18T01:23:57.547Z,39.53
2022-10-18T01:26:44.262Z,44.13
2022-10-18T01:29:42.348Z,38.72
2022-10-18T01:32:18.856Z,37.78
2022-10-18T01:34:48.817Z,41.67
2022-10-18T01:37:17.790Z,37.88
2022-10-18T01:39:47.866Z,47.10
2022-10-18T01:42:19.556Z,41.22
2022-10-18T01:44:48.324Z,41.17
2022-10-18T01:47:16.737Z,41.63
2022-10-18T01:49:43.870Z,47.38
2022-10-18T01:52:15.805Z,42.83
2022-10-18T01:54:46.136Z,38.28
2022-10-18T01:57:51.894Z,39.28
2022-10-18T02:00:35.078Z,39.45
2022-10-18T02:03:10.857Z,36.50
2022-10-18T02:05:46.602Z,40.08
2022-10-18T02:08:32.122Z,45.20
2022-10-18T02:11:04.734Z,39.63
2022-10-18T02:13:38.771Z,42.97
2022-10-18T02:16:12.035Z,40.78
2022-10-18T02:18:43.923Z,39.08
2022-10-18T02:21:14.151Z,41.78
2022-10-18T02:23:43.994Z,40.70
2022-10-18T02:26:11.476Z,43.95
2022-10-18T02:28:39.482Z,39.08
2022-10-18T02:31:20.334Z,34.97
2022-10-18T02:33:55.684Z,40.28
2022-10-18T02:36:28.788Z,43.25
2022-10-18T02:39:02.112Z,40.92
2022-10-18T02:41:30.875Z,42.20
2022-10-18T02:43:58.008Z,34.95
2022-10-18T02:48:57.242Z,41.63
2022-10-18T02:51:25.158Z,45.67
2022-10-18T02:53:52.368Z,40.45
2022-10-18T02:56:19.490Z,37.53
2022-10-18T02:58:46.594Z,42.53
2022-10-18T03:01:13.866Z,43.83
2022-10-18T03:03:41.114Z,38.60
2022-10-18T03:06:08.272Z,41.20
2022-10-18T03:08:36.461Z,39.58
2022-10-18T03:11:03.586Z,39.42
2022-10-18T03:16:02.703Z,41.15
2022-10-18T03:18:29.831Z,34.40
2022-10-18T03:20:56.891Z,41.42
2022-10-18T03:23:23.973Z,42.28
2022-10-18T03:25:51.156Z,38.90
2022-10-18T03:28:18.272Z,37.35
2022-10-18T03:30:45.452Z,38.63
2022-10-18T03:33:12.934Z,43.13
2022-10-18T03:35:40.036Z,37.65
2022-10-18T03:38:07.268Z,46.63
2022-10-18T03:40:34.750Z,40.20
2022-10-18T03:43:01.915Z,59.25
2022-10-18T03:45:31.290Z,59.50
2022-10-18T03:47:58.787Z,81.80
2022-10-18T03:50:25.904Z,87.60
2022-10-18T03:52:54.475Z,63.33
2022-10-18T03:55:21.822Z,56.50
2022-10-18T03:57:50.180Z,58.67
2022-10-18T04:00:17.565Z,51.75
2022-10-18T04:02:44.668Z,50.35
2022-10-18T04:05:12.880Z,46.47
2022-10-18T04:07:40.185Z,47.45
2022-10-18T04:10:08.000Z,48.10
2022-10-18T04:12:35.139Z,47.97
2022-10-18T04:15:03.065Z,46.30
2022-10-18T04:17:30.527Z,45.17
2022-10-18T04:19:57.782Z,45.55
2022-10-18T04:22:24.915Z,48.15
2022-10-18T04:24:53.311Z,40.20
2022-10-18T04:27:20.435Z,41.72
2022-10-18T04:29:47.526Z,44.53
2022-10-18T04:32:14.763Z,44.40
2022-10-18T04:37:13.878Z,50.08
2022-10-18T04:39:40.968Z,43.20
2022-10-18T04:42:08.272Z,40.80
2022-10-18T04:44:35.423Z,35.47
2022-10-18T04:47:02.681Z,38.72
2022-10-18T04:49:29.810Z,46.17
2022-10-18T04:51:56.874Z,41.92
2022-10-18T04:54:26.514Z,42.45
2022-10-18T04:56:55.787Z,43.78
2022-10-18T04:59:22.887Z,40.40
2022-10-18T05:01:50.074Z,48.38
2022-10-18T05:04:17.222Z,43.35
2022-10-18T05:06:44.283Z,43.63
2022-10-18T05:09:11.382Z,43.85
2022-10-18T05:11:38.599Z,44.17
2022-10-18T05:14:05.738Z,43.65
2022-10-18T05:16:33.096Z,38.15
2022-10-18T05:19:00.206Z,40.63
2022-10-18T05:21:27.381Z,43.08
2022-10-18T05:23:58.035Z,42.20
2022-10-18T05:26:25.143Z,40.10
2022-10-18T05:28:52.247Z,45.58
2022-10-18T05:31:19.366Z,42.13
2022-10-18T05:33:46.605Z,42.10
2022-10-18T05:36:13.851Z,42.88
2022-10-18T05:38:45.373Z,36.83
2022-10-18T05:41:12.826Z,43.35
2022-10-18T05:43:40.746Z,42.05
2022-10-18T05:46:13.549Z,38.42
2022-10-18T05:48:43.999Z,45.25
2022-10-18T05:51:11.288Z,46.28
2022-10-18T05:53:38.551Z,38.05
2022-10-18T05:56:07.203Z,33.13
2022-10-18T05:58:34.932Z,42.42
2022-10-18T06:01:03.682Z,38.45
2022-10-18T06:03:31.082Z,34.58
2022-10-18T06:06:06.105Z,46.53
2022-10-18T06:08:34.378Z,37.05
2022-10-18T06:11:06.948Z,35.30
2022-10-18T06:13:34.298Z,31.98
2022-10-18T06:16:01.466Z,38.67
2022-10-18T06:18:29.724Z,29.63
2022-10-18T06:20:58.266Z,33.08
2022-10-18T06:23:29.110Z,32.60
2022-10-18T06:26:01.000Z,33.33
2022-10-18T06:28:29.769Z,30.30
2022-10-18T06:30:57.917Z,34.00
2022-10-18T06:33:25.656Z,31.80
2022-10-18T06:36:01.322Z,30.30
2022-10-18T06:38:29.818Z,30.60
2022-10-18T06:40:58.022Z,32.70
2022-10-18T06:43:25.580Z,23.52
2022-10-18T06:45:53.325Z,26.08
2022-10-18T06:48:21.369Z,28.60
2022-10-18T06:50:59.115Z,29.35
2022-10-18T06:53:28.086Z,29.38
2022-10-18T06:56:10.339Z,26.73
2022-10-18T06:58:37.943Z,26.83
2022-10-18T07:01:23.047Z,23.30
2022-10-18T07:03:53.223Z,29.65
2022-10-18T07:06:21.073Z,20.60
2022-10-18T07:08:49.345Z,23.80
2022-10-18T07:11:19.472Z,28.00
2022-10-18T07:13:46.757Z,23.30
2022-10-18T07:16:18.324Z,24.60
2022-10-18T07:18:52.149Z,23.15
2022-10-18T07:21:22.690Z,25.45
2022-10-18T07:23:50.815Z,30.90
2022-10-18T07:26:32.039Z,37.47
2022-10-18T07:29:05.475Z,24.40
2022-10-18T07:34:00.646Z,25.50
2022-10-18T07:36:27.761Z,29.88
2022-10-18T07:38:54.967Z,26.92
2022-10-18T07:41:22.749Z,28.38
2022-10-18T07:43:51.789Z,25.40
2022-10-18T07:46:21.210Z,24.00
2022-10-18T07:48:49.125Z,28.85
2022-10-18T07:51:17.148Z,26.45
2022-10-18T07:53:44.263Z,26.70
2022-10-18T07:56:17.049Z,27.50
2022-10-18T07:58:45.334Z,28.27
2022-10-18T08:01:13.511Z,30.63
2022-10-18T08:03:41.967Z,36.50
2022-10-18T08:06:11.008Z,32.40
2022-10-18T08:08:40.354Z,42.95
2022-10-18T08:11:27.701Z,39.30
2022-10-18T08:13:55.067Z,32.08
2022-10-18T08:16:24.748Z,36.03
2022-10-18T08:18:52.529Z,39.35
2022-10-18T08:21:21.083Z,39.42
2022-10-18T08:23:49.154Z,35.33
2022-10-18T08:26:18.558Z,41.97
2022-10-18T08:28:54.108Z,47.08
2022-10-18T08:31:26.569Z,47.28
2022-10-18T08:33:57.179Z,52.30
2022-10-18T08:36:24.867Z,55.75
2022-10-18T08:38:52.320Z,60.45
2022-10-18T08:41:36.635Z,54.03
2022-10-18T08:44:33.021Z,67.75
2022-10-18T08:47:07.002Z,64.40
2022-10-18T08:49:36.875Z,65.30
2022-10-18T08:52:12.322Z,59.03
2022-10-18T08:55:00.050Z,59.38
2022-10-18T08:57:27.326Z,65.53
2022-10-18T08:59:54.517Z,63.10
2022-10-18T09:02:49.634Z,64.43
2022-10-18T09:05:27.653Z,64.53
2022-10-18T09:08:38.978Z,66.70
2022-10-18T09:11:33.350Z,73.35
2022-10-18T09:14:17.626Z,63.88
2022-10-18T09:16:53.234Z,63.78
2022-10-18T09:19:29.390Z,72.35
2022-10-18T09:22:11.912Z,62.45
2022-10-18T09:24:39.947Z,67.10
2022-10-18T09:27:18.228Z,80.70
2022-10-18T09:29:48.224Z,59.10
2022-10-18T09:32:27.349Z,68.30
2022-10-18T09:35:15.732Z,63.90
2022-10-18T09:37:44.418Z,61.70
2022-10-18T09:40:18.983Z,54.65
2022-10-18T09:42:58.331Z,60.10
2022-10-18T09:45:32.634Z,64.03
2022-10-18T09:48:03.095Z,61.63
2022-10-18T09:50:42.412Z,58.67
2022-10-18T09:53:38.147Z,60.58
2022-10-18T09:56:09.411Z,58.63
2022-10-18T09:58:47.697Z,59.53
2022-10-18T10:01:19.781Z,56.83
2022-10-18T10:03:46.932Z,57.72
2022-10-18T10:06:16.623Z,49.85
2022-10-18T10:08:48.891Z,62.30
2022-10-18T10:11:36.147Z,58.50
2022-10-18T10:16:54.846Z,59.40
2022-10-18T10:19:55.620Z,57.60
2022-10-18T10:22:35.769Z,55.40
2022-10-18T10:25:04.063Z,54.47
2022-10-18T10:27:43.547Z,56.92
2022-10-18T10:30:37.408Z,56.95
2022-10-18T10:38:29.355Z,61.03
2022-10-18T10:40:57.734Z,57.78
2022-10-18T10:43:44.056Z,59.45
2022-10-18T10:46:18.828Z,55.33
2022-10-18T10:48:49.689Z,59.20
2022-10-18T10:51:28.796Z,57.45
2022-10-18T10:54:24.413Z,59.88
2022-10-18T10:57:05.025Z,56.70
2022-10-18T11:02:14.212Z,51.28
2022-10-18T11:04:42.837Z,58.17
2022-10-18T11:07:09.892Z,57.28
2022-10-18T11:09:45.765Z,62.15
2022-10-18T11:12:28.549Z,59.78
2022-10-18T11:15:13.875Z,56.70
2022-10-18T11:18:04.684Z,55.45
2022-10-18T11:21:13.086Z,55.92
2022-10-18T11:23:42.855Z,55.33
2022-10-18T11:26:12.768Z,54.47
2022-10-18T11:28:54.413Z,53.53
2022-10-18T11:31:47.317Z,54.70
2022-10-18T11:34:47.387Z,56.22
2022-10-18T11:37:42.214Z,56.92
2022-10-18T11:40:32.416Z,56.70
2022-10-18T11:43:16.475Z,55.03
2022-10-18T11:46:12.719Z,54.58
2022-10-18T11:49:14.052Z,53.03
2022-10-18T11:52:07.728Z,61.13
2022-10-18T11:54:56.873Z,53.13
2022-10-18T11:58:03.792Z,54.38
2022-10-18T12:00:33.573Z,55.40
2022-10-18T12:03:07.423Z,52.70
2022-10-18T12:05:37.996Z,45.55
2022-10-18T12:08:23.098Z,47.47
2022-10-18T12:11:08.949Z,53.28
2022-10-18T12:13:46.318Z,52.40
2022-10-18T12:16:14.362Z,48.03
2022-10-18T12:19:04.430Z,52.33
2022-10-18T12:21:34.177Z,50.17
2022-10-18T12:24:11.035Z,46.03
2022-10-18T12:26:38.526Z,46.47
2022-10-18T12:29:08.341Z,47.40
2022-10-18T12:31:59.007Z,43.05
2022-10-18T12:34:32.027Z,43.90
2022-10-18T12:40:09.448Z,47.78
2022-10-18T12:42:42.764Z,45.28
2022-10-18T12:45:32.217Z,42.70
2022-10-18T12:48:01.987Z,41.70
2022-10-18T12:50:42.051Z,42.55
2022-10-18T12:53:12.281Z,41.03
2022-10-18T12:55:44.607Z,47.40
2022-10-18T12:58:14.767Z,38.55
2022-10-18T13:00:41.839Z,33.17
2022-10-18T13:03:17.973Z,42.40
2022-10-18T13:05:53.500Z,35.45
2022-10-18T13:08:27.904Z,35.53
2022-10-18T13:11:10.174Z,44.40
2022-10-18T13:13:52.360Z,44.35
2022-10-18T13:16:46.746Z,37.28
2022-10-18T13:19:32.687Z,45.08
2022-10-18T13:21:59.727Z,42.53
2022-10-18T13:24:32.070Z,33.15
2022-10-18T13:27:35.832Z,36.85
2022-10-18T13:30:21.869Z,35.10
2022-10-18T13:33:16.691Z,32.33
2022-10-18T13:36:07.055Z,36.17
2022-10-18T13:38:55.676Z,35.70
2022-10-18T13:41:34.392Z,34.55
2022-10-18T13:44:37.739Z,37.25
2022-10-18T13:47:05.488Z,40.85
2022-10-18T13:49:48.883Z,33.78
2022-10-18T13:52:47.047Z,43.35
2022-10-18T13:55:29.306Z,39.17
2022-10-18T13:58:17.298Z,37.60
2022-10-18T14:00:52.462Z,37.22
2022-10-18T14:03:56.985Z,35.58
2022-10-18T14:06:32.640Z,32.78
2022-10-18T14:09:25.707Z,36.13
2022-10-18T14:12:14.704Z,29.27
2022-10-18T14:14:54.927Z,29.02
2022-10-18T14:17:50.012Z,29.15
2022-10-18T14:20:20.924Z,34.92
2022-10-18T14:22:53.558Z,28.73
2022-10-18T14:25:41.299Z,27.00
2022-10-18T14:28:15.618Z,26.20
2022-10-18T14:31:07.305Z,27.90
2022-10-18T14:33:34.394Z,30.65
2022-10-18T14:36:08.153Z,28.35
2022-10-18T14:38:45.742Z,29.88
2022-10-18T14:41:26.466Z,29.48
2022-10-18T14:44:16.525Z,26.88
2022-10-18T14:46:48.726Z,27.05
2022-10-18T14:49:18.101Z,27.53
2022-10-18T14:51:48.691Z,28.45
2022-10-18T14:54:31.956Z,30.67
2022-10-18T14:57:01.133Z,29.67
2022-10-18T14:59:32.462Z,30.65
2022-10-18T15:02:05.006Z,28.75
2022-10-18T15:04:33.179Z,33.03
2022-10-18T15:07:02.010Z,29.08
2022-10-18T15:09:30.536Z,29.65
2022-10-18T15:11:58.375Z,32.20
2022-10-18T15:14:27.523Z,30.30
2022-10-18T15:17:00.541Z,27.52
2022-10-18T15:19:31.222Z,30.63
2022-10-18T15:22:31.219Z,38.50
2022-10-18T15:25:18.260Z,33.75
2022-10-18T15:27:48.544Z,32.38
2022-10-18T15:30:18.701Z,36.00
2022-10-18T15:32:55.989Z,27.50
2022-10-18T15:35:32.294Z,32.33
2022-10-18T15:38:04.844Z,31.85
2022-10-18T15:40:36.033Z,32.70
2022-10-18T15:43:06.162Z,30.98
2022-10-18T15:45:37.531Z,32.63
2022-10-18T15:48:10.632Z,27.80
2022-10-18T15:50:39.668Z,26.85
2022-10-18T15:53:25.207Z,26.85
2022-10-18T15:56:01.191Z,30.35
2022-10-18T15:58:36.210Z,36.25
2022-10-18T16:01:04.440Z,35.03
2022-10-18T16:03:35.740Z,35.03
2022-10-18T16:06:07.532Z,29.17
2022-10-18T16:08:40.945Z,36.08
2022-10-18T16:11:14.814Z,34.30
2022-10-18T16:13:43.983Z,31.02
2022-10-18T16:16:17.880Z,41.08
2022-10-18T16:18:45.294Z,34.35
2022-10-18T16:21:20.526Z,34.75
2022-10-18T16:23:49.049Z,35.97
2022-10-18T16:26:17.693Z,35.03
2022-10-18T16:28:45.907Z,37.03
2022-10-18T16:31:24.725Z,38.40
2022-10-18T16:33:54.792Z,38.00
2022-10-18T16:36:33.458Z,38.40
2022-10-18T16:39:03.806Z,34.88
2022-10-18T16:41:30.909Z,34.90
2022-10-18T16:43:58.002Z,35.00
2022-10-18T16:46:28.774Z,32.30
2022-10-18T16:48:56.890Z,35.17
2022-10-18T16:51:24.264Z,32.13
2022-10-18T16:53:53.331Z,32.92
2022-10-18T16:56:32.124Z,33.95
2022-10-18T16:59:00.383Z,28.42
2022-10-18T17:01:27.982Z,39.88
2022-10-18T17:03:55.314Z,30.35
2022-10-18T17:06:26.861Z,31.33
2022-10-18T17:08:55.318Z,35.45
2022-10-18T17:11:24.513Z,31.73
2022-10-18T17:13:51.617Z,35.97
2022-10-18T17:18:57.716Z,32.55
2022-10-18T17:21:26.362Z,35.42
2022-10-18T17:23:53.546Z,34.53
2022-10-18T17:26:28.930Z,30.95
2022-10-18T17:29:02.930Z,37.38
2022-10-18T17:33:59.735Z,39.00
2022-10-18T17:36:27.136Z,30.73
2022-10-18T17:38:54.782Z,35.35
2022-10-18T17:41:22.312Z,38.38
2022-10-18T17:43:49.822Z,34.53
2022-10-18T17:46:17.952Z,35.80
2022-10-18T17:48:45.581Z,37.80
2022-10-18T17:51:15.135Z,38.72
2022-10-18T17:53:42.355Z,37.40
2022-10-18T17:56:10.531Z,35.47
2022-10-18T17:58:37.753Z,39.95
2022-10-18T18:01:19.423Z,39.40
2022-10-18T18:03:49.677Z,42.97
2022-10-18T18:06:23.713Z,43.78
2022-10-18T18:08:50.884Z,43.85
2022-10-18T18:11:18.670Z,41.13
2022-10-18T18:13:45.948Z,43.05
2022-10-18T18:16:22.026Z,37.10
2022-10-18T18:18:52.097Z,44.95
2022-10-18T18:21:20.283Z,38.10
2022-10-18T18:23:48.527Z,40.40
2022-10-18T18:26:17.606Z,42.33
2022-10-18T18:28:44.922Z,40.08
2022-10-18T18:31:16.396Z,41.72
2022-10-18T18:33:43.827Z,40.55
2022-10-18T18:36:11.691Z,44.20
2022-10-18T18:38:42.527Z,39.58
2022-10-18T18:41:18.586Z,39.83
2022-10-18T18:43:51.170Z,39.70
2022-10-18T18:46:18.416Z,40.90
2022-10-18T18:48:45.619Z,36.13
2022-10-18T18:51:15.779Z,36.47
2022-10-18T18:53:44.243Z,36.38
2022-10-18T18:56:14.582Z,40.85
2022-10-18T18:58:43.987Z,41.50
2022-10-18T19:01:14.878Z,42.05
2022-10-18T19:03:42.947Z,44.95
2022-10-18T19:06:15.859Z,41.00
2022-10-18T19:08:44.839Z,39.92
2022-10-18T19:11:17.970Z,34.00
2022-10-18T19:13:45.606Z,34.35
2022-10-18T19:16:27.797Z,46.70
2022-10-18T19:19:06.832Z,46.63
2022-10-18T19:21:44.243Z,48.55
2022-10-18T19:24:11.779Z,53.38
2022-10-18T19:26:50.302Z,53.60
2022-10-18T19:29:22.596Z,40.83
2022-10-18T19:31:54.825Z,55.10
2022-10-18T19:34:23.735Z,52.05
2022-10-18T19:36:51.793Z,53.65
2022-10-18T19:39:22.030Z,57.33
2022-10-18T19:41:51.730Z,57.90
2022-10-18T19:44:19.741Z,59.53
2022-10-18T19:46:48.219Z,56.15
2022-10-18T19:49:16.388Z,52.40
2022-10-18T19:51:43.668Z,49.55
2022-10-18T19:54:11.950Z,52.35
2022-10-18T19:56:41.058Z,61.05
2022-10-18T19:59:09.036Z,55.88
2022-10-18T20:01:36.960Z,52.20
2022-10-18T20:04:04.751Z,57.88
2022-10-18T20:06:32.171Z,53.30
2022-10-18T20:08:59.482Z,61.00
2022-10-18T20:11:28.411Z,48.88
2022-10-18T20:13:55.997Z,54.33
2022-10-18T20:16:28.888Z,52.58
2022-10-18T20:19:01.393Z,51.13
2022-10-18T20:21:30.099Z,50.42
2022-10-18T20:23:57.495Z,47.03
2022-10-18T20:26:25.454Z,48.25
2022-10-18T20:28:57.122Z,53.35
2022-10-18T20:31:26.464Z,47.78
2022-10-18T20:34:04.975Z,51.72
2022-10-18T20:36:32.921Z,53.72
2022-10-18T20:39:00.731Z,53.08
2022-10-18T20:41:34.011Z,49.53
2022-10-18T20:44:03.966Z,54.03
2022-10-18T20:46:33.694Z,52.60
2022-10-18T20:49:01.042Z,50.47
2022-10-18T20:51:28.564Z,52.67
2022-10-18T20:53:55.783Z,48.00
2022-10-18T20:56:26.539Z,49.05
2022-10-18T20:58:56.498Z,50.05
2022-10-18T21:01:26.394Z,48.03
2022-10-18T21:03:55.932Z,50.40
2022-10-18T21:06:34.668Z,44.80
2022-10-18T21:09:05.659Z,47.78
2022-10-18T21:11:36.713Z,44.45
2022-10-18T21:14:05.067Z,47.22
2022-10-18T21:16:34.955Z,41.75
2022-10-18T21:19:07.442Z,52.03
2022-10-18T21:21:35.200Z,45.30
2022-10-18T21:24:05.532Z,50.78
2022-10-18T21:26:35.695Z,47.07
2022-10-18T21:29:04.299Z,47.95
2022-10-18T21:31:37.188Z,41.67
2022-10-18T21:34:07.390Z,47.97
2022-10-18T21:36:36.737Z,46.67
2022-10-18T21:39:06.344Z,42.65
2022-10-18T21:41:34.266Z,48.55
2022-10-18T21:44:04.505Z,47.60
2022-10-18T21:46:34.697Z,49.03
2022-10-18T21:49:01.798Z,47.33
2022-10-18T21:51:29.274Z,45.95
2022-10-18T21:53:58.148Z,49.03
2022-10-18T21:56:27.741Z,46.78
2022-10-18T21:58:55.726Z,47.75
2022-10-18T22:01:26.195Z,50.60
2022-10-18T22:03:55.686Z,50.65
2022-10-18T22:06:23.995Z,49.53
2022-10-18T22:08:54.167Z,49.78
2022-10-18T22:11:25.724Z,52.50
2022-10-18T22:13:53.154Z,46.80
2022-10-18T22:16:20.819Z,47.22
2022-10-18T22:18:49.066Z,45.80
2022-10-18T22:21:18.158Z,44.63
2022-10-18T22:23:47.556Z,48.55
2022-10-18T22:26:20.442Z,54.63
2022-10-18T22:28:53.125Z,48.00
2022-10-18T22:31:23.067Z,53.37
2022-10-18T22:33:58.911Z,50.35
2022-10-18T22:36:26.679Z,51.05
2022-10-18T22:38:54.046Z,51.08
2022-10-18T22:41:21.613Z,53.05
2022-10-18T22:43:50.319Z,47.30
2022-10-18T22:46:17.863Z,50.47
2022-10-18T22:48:45.408Z,49.20
2022-10-18T22:51:12.966Z,53.83
2022-10-18T22:53:40.945Z,52.67
2022-10-18T22:56:11.811Z,49.97
2022-10-18T22:58:38.894Z,52.78
2022-10-18T23:01:10.142Z,48.00
2022-10-18T23:03:38.203Z,51.10
2022-10-18T23:06:17.062Z,51.67
2022-10-18T23:08:44.139Z,57.30
2022-10-18T23:11:11.287Z,54.10
2022-10-18T23:13:39.625Z,55.13
2022-10-18T23:16:07.258Z,55.22
2022-10-18T23:18:34.749Z,50.15
2022-10-18T23:21:09.229Z,47.00
2022-10-18T23:23:38.333Z,52.70
2022-10-18T23:26:08.187Z,50.53
2022-10-18T23:28:37.292Z,44.33
2022-10-18T23:31:09.821Z,46.63
2022-10-18T23:33:37.476Z,43.65
2022-10-18T23:36:05.734Z,44.97
2022-10-18T23:38:34.056Z,41.83
2022-10-18T23:41:01.177Z,43.78
2022-10-18T23:43:28.350Z,48.00
2022-10-18T23:45:55.512Z,55.30
2022-10-18T23:48:22.594Z,52.38
2022-10-18T23:50:49.946Z,50.97
2022-10-18T23:53:19.476Z,48.05
2022-10-18T23:55:53.893Z,47.22
2022-10-18T23:58:21.412Z,51.70
